Time;durP1;ratioP1;P1;durP2;ratioP2;P2;SDS_P1;SDS_P2;PMS_P1;PMS_P2;Temp;Humidity;BMP_temperature;BMP_pressure;BME280_temperature;BME280_humidity;BME280_pressure;Samples;Min_cycle;Max_cycle;Signal;HPM_P1;HPM_P2
2022/09/04 00:01:51;;;;;;;7.63;1.33;;;14.70;99.90;;;;;;5068967;28;20186;-69
2022/09/04 00:04:52;;;;;;;5.23;1.70;;;14.60;99.90;;;;;;5068685;28;20179;-70
2022/09/04 00:07:37;;;;;;;6.20;1.23;;;14.70;99.90;;;;;;5068117;28;20183;-70
2022/09/04 00:10:22;;;;;;;4.63;1.23;;;15.00;99.90;;;;;;5070164;28;20191;-70
2022/09/04 00:13:20;;;;;;;6.17;1.40;;;15.30;99.90;;;;;;5074105;28;20199;-69
2022/09/04 00:16:12;;;;;;;12.50;1.53;;;15.40;99.90;;;;;;5069113;28;20253;-70
2022/09/04 00:18:58;;;;;;;5.53;1.20;;;15.60;99.90;;;;;;5063107;28;20231;-70
2022/09/04 00:21:48;;;;;;;5.00;1.40;;;16.20;99.90;;;;;;5076209;28;20175;-69
2022/09/04 00:24:21;;;;;;;3.67;1.30;;;16.90;99.90;;;;;;5076485;28;20576;-69
2022/09/04 00:27:04;;;;;;;4.90;1.50;;;17.40;99.90;;;;;;5093395;28;20231;-69
2022/09/04 00:29:52;;;;;;;4.17;0.90;;;18.10;99.90;;;;;;5071634;28;20180;-70
2022/09/04 00:32:28;;;;;;;6.83;0.90;;;18.20;99.90;;;;;;5073057;28;20649;-72
2022/09/04 00:35:01;;;;;;;1.97;0.73;;;17.70;99.90;;;;;;5073182;28;20195;-74
2022/09/04 00:37:37;;;;;;;5.77;1.43;;;17.50;99.90;;;;;;5073106;28;20258;-75
2022/09/04 00:40:24;;;;;;;2.93;1.10;;;17.10;99.90;;;;;;5081223;28;20256;-76
2022/09/04 00:43:23;;;;;;;6.47;1.30;;;16.60;99.90;;;;;;5093642;28;20574;-77
2022/09/04 00:46:07;;;;;;;5.27;1.00;;;16.60;99.90;;;;;;5066107;28;20207;-71
2022/09/04 00:48:53;;;;;;;7.87;1.30;;;16.90;99.90;;;;;;5072691;28;20184;-69
2022/09/04 00:51:23;;;;;;;7.60;1.30;;;17.50;99.90;;;;;;5072611;28;20605;-69
2022/09/04 00:54:27;;;;;;;5.93;0.87;;;17.80;99.90;;;;;;5072805;28;20183;-70
2022/09/04 00:57:12;;;;;;;6.00;1.10;;;18.60;99.90;;;;;;5072403;28;20214;-76
2022/09/04 01:00:14;;;;;;;5.73;1.27;;;18.40;99.90;;;;;;5072073;28;20704;-68
2022/09/04 01:02:48;;;;;;;6.73;1.40;;;17.20;99.90;;;;;;5067706;28;20268;-71
2022/09/04 01:05:37;;;;;;;3.63;1.10;;;16.40;99.90;;;;;;5052604;28;20223;-71
2022/09/04 01:08:33;;;;;;;3.43;1.03;;;16.00;99.90;;;;;;5055117;28;20264;-70
2022/09/04 01:11:12;;;;;;;5.10;1.30;;;15.70;99.90;;;;;;5071551;28;20182;-70
2022/09/04 01:14:01;;;;;;;12.77;1.43;;;15.70;99.90;;;;;;5067525;28;20191;-72
2022/09/04 01:16:41;;;;;;;6.30;1.40;;;16.80;99.90;;;;;;5071563;28;20172;-70
2022/09/04 01:19:23;;;;;;;5.47;1.73;;;17.00;99.90;;;;;;5071305;28;20668;-69
2022/09/04 01:22:00;;;;;;;6.17;1.50;;;16.90;99.90;;;;;;5072064;28;20195;-69
2022/09/04 01:24:56;;;;;;;8.93;1.43;;;16.60;99.90;;;;;;5072084;28;20756;-69
2022/09/04 01:27:47;;;;;;;8.10;1.50;;;16.50;99.90;;;;;;5062134;28;20195;-69
2022/09/04 01:30:19;;;;;;;5.83;1.63;;;17.00;99.90;;;;;;5075816;28;20188;-69
2022/09/04 01:33:14;;;;;;;10.50;1.50;;;16.90;99.90;;;;;;5071736;28;20195;-68
2022/09/04 01:36:05;;;;;;;6.80;1.43;;;16.90;99.90;;;;;;5073407;28;20180;-69
2022/09/04 01:39:08;;;;;;;7.73;1.67;;;17.00;99.90;;;;;;5071478;28;20263;-74
2022/09/04 01:41:57;;;;;;;4.37;1.43;;;17.00;99.90;;;;;;5071337;28;20187;-70
2022/09/04 01:44:25;;;;;;;7.23;1.27;;;17.30;99.90;;;;;;5071700;28;20671;-69
2022/09/04 01:47:31;;;;;;;4.67;1.17;;;17.80;99.90;;;;;;5071404;28;20599;-72
2022/09/04 01:50:18;;;;;;;4.97;1.50;;;18.30;99.90;;;;;;5050540;28;20195;-71
2022/09/04 01:53:04;;;;;;;6.30;1.30;;;18.20;99.90;;;;;;5071333;28;20283;-70
2022/09/04 01:55:49;;;;;;;6.13;1.40;;;17.40;99.90;;;;;;5071744;28;20208;-68
2022/09/04 01:58:34;;;;;;;4.83;1.50;;;16.90;99.90;;;;;;5071265;28;20227;-68
2022/09/04 02:01:04;;;;;;;6.20;1.37;;;16.10;99.90;;;;;;5070746;28;20180;-75
2022/09/04 02:03:40;;;;;;;4.40;1.20;;;16.00;99.90;;;;;;5071396;28;20183;-74
2022/09/04 02:06:29;;;;;;;3.07;1.23;;;16.80;99.90;;;;;;5071719;28;20629;-73
2022/09/04 02:09:10;;;;;;;5.20;0.97;;;17.40;99.90;;;;;;5071628;28;20588;-73
2022/09/04 02:11:44;;;;;;;3.63;1.07;;;17.90;99.90;;;;;;5071302;28;20187;-74
2022/09/04 02:14:31;;;;;;;11.30;1.27;;;18.30;99.90;;;;;;5069972;28;20176;-72
2022/09/04 02:17:09;;;;;;;4.63;1.30;;;17.90;99.90;;;;;;5070117;28;20199;-73
2022/09/04 02:20:00;;;;;;;3.70;1.03;;;17.90;99.90;;;;;;5071020;28;20227;-73
2022/09/04 02:22:45;;;;;;;3.07;1.30;;;17.80;99.90;;;;;;5070747;28;20550;-73
2022/09/04 02:26:05;;;;;;;4.20;1.10;;;17.40;99.90;;;;;;5071589;28;20180;-73
2022/09/04 02:28:56;;;;;;;4.77;1.40;;;17.40;99.90;;;;;;5065701;28;20233;-72
2022/09/04 02:31:43;;;;;;;8.03;1.60;;;18.40;99.90;;;;;;5073595;28;20203;-74
2022/09/04 02:34:32;;;;;;;3.77;1.00;;;18.60;99.90;;;;;;5074765;28;20175;-75
2022/09/04 02:37:19;;;;;;;8.37;1.50;;;18.80;99.90;;;;;;5075142;28;20220;-72
2022/09/04 02:40:10;;;;;;;4.93;1.00;;;18.70;99.90;;;;;;5055518;28;20299;-73
2022/09/04 02:42:59;;;;;;;3.90;1.07;;;18.50;99.90;;;;;;5056366;28;20177;-73
2022/09/04 02:45:45;;;;;;;9.20;1.77;;;18.40;99.90;;;;;;5075199;28;20562;-73
2022/09/04 02:48:18;;;;;;;6.87;1.13;;;18.30;99.90;;;;;;5074031;28;20717;-72
2022/09/04 02:51:33;;;;;;;5.97;0.93;;;18.30;99.90;;;;;;5075249;28;20180;-74
2022/09/04 02:54:14;;;;;;;4.60;1.03;;;18.20;99.90;;;;;;5075358;28;20227;-72
2022/09/04 02:57:19;;;;;;;3.83;1.60;;;18.80;99.90;;;;;;5075120;28;20176;-74
2022/09/04 03:00:18;;;;;;;7.77;1.63;;;18.90;99.90;;;;;;5068415;28;20235;-73
2022/09/04 03:03:17;;;;;;;3.70;1.40;;;19.00;99.90;;;;;;5075405;28;20176;-74
2022/09/04 03:05:49;;;;;;;5.33;1.33;;;19.60;99.90;;;;;;5055157;28;20316;-74
2022/09/04 03:08:36;;;;;;;6.10;1.23;;;19.70;99.90;;;;;;5054797;28;20180;-75
2022/09/04 03:11:09;;;;;;;4.53;0.93;;;19.80;99.90;;;;;;5054868;28;20193;-72
2022/09/04 03:13:58;;;;;;;4.77;1.13;;;19.70;99.90;;;;;;5060669;28;20555;-74
2022/09/04 03:16:50;;;;;;;3.80;1.13;;;19.90;99.90;;;;;;5074902;28;20267;-72
2022/09/04 03:20:04;;;;;;;2.67;1.10;;;19.90;99.90;;;;;;5074604;28;20257;-75
2022/09/04 03:22:53;;;;;;;4.10;0.90;;;19.70;99.90;;;;;;5072169;28;20184;-74
2022/09/04 03:25:44;;;;;;;6.03;1.10;;;19.20;99.90;;;;;;5074549;28;20187;-73
2022/09/04 03:28:29;;;;;;;4.27;1.07;;;19.40;99.90;;;;;;5074586;28;20574;-74
2022/09/04 03:31:10;;;;;;;1.73;1.10;;;19.60;99.90;;;;;;5074707;28;20184;-73
2022/09/04 03:33:46;;;;;;;7.33;1.40;;;19.90;99.90;;;;;;5074333;28;20187;-72
2022/09/04 03:36:39;;;;;;;3.97;1.17;;;19.90;99.90;;;;;;5073241;28;20191;-72
2022/09/04 03:39:38;;;;;;;3.30;1.07;;;19.60;99.90;;;;;;5074556;28;20215;-74
2022/09/04 03:42:26;;;;;;;2.80;1.23;;;19.30;99.90;;;;;;5073814;28;20226;-74
2022/09/04 03:45:02;;;;;;;2.23;0.90;;;18.90;99.90;;;;;;5074179;28;20196;-75
2022/09/04 03:47:53;;;;;;;5.80;1.23;;;18.60;99.90;;;;;;5074183;28;20653;-73
2022/09/04 03:50:26;;;;;;;9.93;1.80;;;18.10;99.90;;;;;;5074220;28;20179;-75
2022/09/04 03:53:11;;;;;;;5.70;1.20;;;18.10;99.90;;;;;;5073632;28;20731;-74
2022/09/04 03:56:06;;;;;;;8.60;1.40;;;17.80;99.90;;;;;;5072853;28;20214;-75
2022/09/04 03:59:01;;;;;;;8.07;1.30;;;17.70;99.90;;;;;;5073850;28;20236;-73
2022/09/04 04:02:15;;;;;;;5.97;1.10;;;17.60;99.90;;;;;;5074065;28;20317;-74
2022/09/04 04:05:11;;;;;;;3.73;1.20;;;17.40;99.90;;;;;;5073508;28;20203;-74
2022/09/04 04:07:47;;;;;;;6.37;1.83;;;17.50;99.90;;;;;;5073381;28;20270;-74
2022/09/04 04:10:32;;;;;;;2.87;1.07;;;17.20;99.90;;;;;;5073872;28;20770;-74
2022/09/04 04:13:20;;;;;;;7.90;1.43;;;16.90;99.90;;;;;;5055681;28;20172;-73
2022/09/04 04:16:00;;;;;;;4.33;1.43;;;16.60;99.90;;;;;;5073841;28;20265;-74
2022/09/04 04:18:59;;;;;;;7.90;2.07;;;16.50;99.90;;;;;;5073520;28;20543;-73
2022/09/04 04:22:11;;;;;;;11.37;1.80;;;16.30;99.90;;;;;;5073182;28;20211;-73
2022/09/04 04:24:50;;;;;;;7.30;1.60;;;16.40;99.90;;;;;;5073170;28;20187;-73
2022/09/04 04:27:42;;;;;;;5.60;1.63;;;16.50;99.90;;;;;;5073495;28;20272;-73
2022/09/04 04:30:13;;;;;;;7.20;1.87;;;16.70;99.90;;;;;;5072336;28;20550;-73
2022/09/04 04:33:02;;;;;;;10.43;1.83;;;16.70;99.90;;;;;;5072003;28;20179;-74
2022/09/04 04:35:54;;;;;;;5.90;1.77;;;16.70;99.90;;;;;;5073394;28;20594;-72
2022/09/04 04:38:28;;;;;;;6.90;1.63;;;16.80;99.90;;;;;;5073166;28;20207;-73
2022/09/04 04:41:04;;;;;;;3.67;1.50;;;17.10;99.90;;;;;;5073162;28;20221;-73
2022/09/04 04:43:56;;;;;;;5.77;1.63;;;17.40;99.90;;;;;;5073040;28;20225;-73
2022/09/04 04:46:56;;;;;;;9.73;3.13;;;17.90;99.90;;;;;;5072916;28;20172;-74
2022/09/04 04:49:37;;;;;;;7.90;2.20;;;17.70;99.90;;;;;;5072973;28;20546;-73
2022/09/04 04:52:31;;;;;;;7.83;1.70;;;17.50;99.90;;;;;;5073191;28;20258;-74
2022/09/04 04:55:29;;;;;;;6.47;1.70;;;17.10;99.90;;;;;;5072727;28;20226;-73
2022/09/04 04:58:20;;;;;;;6.57;1.30;;;16.80;99.90;;;;;;5072830;28;20311;-73
2022/09/04 05:01:23;;;;;;;4.30;1.50;;;16.80;99.90;;;;;;5072764;28;20225;-75
2022/09/04 05:04:28;;;;;;;6.23;1.60;;;17.10;99.90;;;;;;5050040;28;20733;-72
2022/09/04 05:07:02;;;;;;;6.33;1.77;;;17.20;99.90;;;;;;5070166;28;20197;-74
2022/09/04 05:10:00;;;;;;;4.20;1.23;;;17.00;99.90;;;;;;5072615;28;20656;-72
2022/09/04 05:12:42;;;;;;;4.90;1.33;;;16.70;99.90;;;;;;5071995;28;20221;-73
2022/09/04 05:15:18;;;;;;;7.17;1.57;;;16.50;99.90;;;;;;5074169;28;20195;-73
2022/09/04 05:18:27;;;;;;;6.20;1.60;;;16.00;99.90;;;;;;5072078;28;20275;-74
2022/09/04 05:21:09;;;;;;;5.77;1.37;;;15.60;99.90;;;;;;5038311;28;20207;-72
2022/09/04 05:23:48;;;;;;;9.67;1.87;;;15.30;99.90;;;;;;5035491;28;20257;-74
2022/09/04 05:26:35;;;;;;;7.53;1.80;;;15.30;99.90;;;;;;5050006;28;20183;-72
2022/09/04 05:29:10;;;;;;;9.87;1.87;;;15.40;99.90;;;;;;5050315;28;20189;-73
2022/09/04 05:32:07;;;;;;;6.87;1.63;;;15.30;99.90;;;;;;5051225;28;20199;-75
2022/09/04 05:34:54;;;;;;;13.90;2.40;;;15.40;99.90;;;;;;5071534;28;20195;-73
2022/09/04 05:37:37;;;;;;;5.63;2.10;;;15.60;99.90;;;;;;5072115;28;20274;-75
2022/09/04 05:40:22;;;;;;;7.10;1.80;;;15.50;99.90;;;;;;5072014;28;20247;-74
2022/09/04 05:42:58;;;;;;;7.17;1.70;;;15.40;99.90;;;;;;5072384;28;20176;-75
2022/09/04 05:45:38;;;;;;;8.97;1.90;;;15.40;99.90;;;;;;5071883;28;20210;-74
2022/09/04 05:48:13;;;;;;;8.30;2.13;;;15.70;99.90;;;;;;5072065;28;20225;-72
2022/09/04 05:51:06;;;;;;;8.33;2.00;;;16.00;99.90;;;;;;5072065;28;20183;-74
2022/09/04 05:53:43;;;;;;;6.67;1.83;;;15.90;99.90;;;;;;5071711;28;20206;-75
2022/09/04 05:56:29;;;;;;;7.13;1.70;;;15.90;99.90;;;;;;5068692;28;20637;-73
2022/09/04 05:59:34;;;;;;;8.67;1.97;;;16.00;99.90;;;;;;5072150;28;20238;-76
2022/09/04 06:02:14;;;;;;;6.50;2.03;;;16.10;99.90;;;;;;5071810;28;20683;-75
2022/09/04 06:05:38;;;;;;;9.63;1.63;;;16.30;99.90;;;;;;5072060;28;20190;-74
2022/09/04 06:08:42;;;;;;;10.07;1.67;;;16.30;99.90;;;;;;5052173;28;20211;-74
2022/09/04 06:11:39;;;;;;;7.27;1.83;;;16.30;99.90;;;;;;5053785;28;20657;-72
2022/09/04 06:14:24;;;;;;;6.83;1.60;;;16.20;99.90;;;;;;5059220;28;20265;-73
2022/09/04 06:17:08;;;;;;;5.83;1.40;;;16.40;99.90;;;;;;5076845;28;20200;-71
2022/09/04 06:19:56;;;;;;;6.47;1.90;;;16.40;99.90;;;;;;5072426;28;20218;-73
2022/09/04 06:22:56;;;;;;;5.33;1.47;;;16.40;99.90;;;;;;5071471;28;20180;-74
2022/09/04 06:25:43;;;;;;;7.10;1.87;;;16.00;99.90;;;;;;5071751;28;20538;-74
2022/09/04 06:28:29;;;;;;;5.33;1.33;;;15.90;99.90;;;;;;5071708;28;20179;-72
2022/09/04 06:31:23;;;;;;;8.80;2.20;;;15.70;99.90;;;;;;5071760;28;20176;-73
2022/09/04 06:34:00;;;;;;;10.67;2.00;;;15.60;99.90;;;;;;5070435;28;20180;-72
2022/09/04 06:36:48;;;;;;;9.63;2.20;;;15.60;99.90;;;;;;5071664;28;20185;-74
2022/09/04 06:39:43;;;;;;;7.27;2.07;;;15.50;99.90;;;;;;5071441;28;20207;-72
2022/09/04 06:42:35;;;;;;;9.03;1.97;;;15.50;99.90;;;;;;5071723;28;20172;-74
2022/09/04 06:45:35;;;;;;;7.23;2.20;;;15.30;99.90;;;;;;5071388;28;20681;-73
2022/09/04 06:48:29;;;;;;;10.20;2.60;;;15.20;99.90;;;;;;5071048;28;20237;-74
2022/09/04 06:51:35;;;;;;;12.80;2.43;;;15.00;99.90;;;;;;5071669;28;20179;-72
2022/09/04 06:54:21;;;;;;;8.27;2.20;;;15.00;99.90;;;;;;5071357;28;20184;-73
2022/09/04 06:57:05;;;;;;;9.80;2.23;;;14.90;99.90;;;;;;5070999;28;20212;-74
2022/09/04 07:00:00;;;;;;;9.97;2.50;;;14.80;99.90;;;;;;5071173;28;20253;-73
2022/09/04 07:02:55;;;;;;;11.00;2.40;;;14.80;99.90;;;;;;5071301;28;20649;-73
2022/09/04 07:05:43;;;;;;;10.37;2.60;;;14.70;99.90;;;;;;5071086;28;20285;-73
2022/09/04 07:08:43;;;;;;;11.73;2.57;;;14.60;99.90;;;;;;5070985;28;20711;-74
2022/09/04 07:11:11;;;;;;;10.67;2.10;;;14.50;99.90;;;;;;5066203;28;20790;-73
2022/09/04 07:13:56;;;;;;;11.27;2.70;;;14.40;99.90;;;;;;5056237;28;20546;-73
2022/09/04 07:16:34;;;;;;;16.27;2.37;;;14.30;99.90;;;;;;5062454;28;20719;-74
2022/09/04 07:19:22;;;;;;;7.23;2.50;;;14.30;99.90;;;;;;5070025;28;20600;-74
2022/09/04 07:22:08;;;;;;;10.77;3.00;;;14.20;99.90;;;;;;5070696;28;20275;-74
2022/09/04 07:24:55;;;;;;;13.90;2.60;;;14.10;99.90;;;;;;5074516;28;20736;-75
2022/09/04 07:27:38;;;;;;;10.07;2.83;;;14.10;99.90;;;;;;5073564;28;20550;-74
2022/09/04 07:30:12;;;;;;;11.57;2.10;;;14.20;99.90;;;;;;5074254;28;20187;-74
2022/09/04 07:33:00;;;;;;;8.53;1.90;;;14.20;99.90;;;;;;5074468;28;20199;-72
2022/09/04 07:35:43;;;;;;;5.50;1.67;;;14.30;99.90;;;;;;5070789;28;20191;-72
2022/09/04 07:38:40;;;;;;;7.37;1.87;;;14.30;99.90;;;;;;5073877;28;20210;-73
2022/09/04 07:41:27;;;;;;;4.03;1.50;;;14.30;99.90;;;;;;5072967;28;20621;-72
2022/09/04 07:44:26;;;;;;;6.00;2.37;;;14.30;99.90;;;;;;5073687;28;20227;-73
2022/09/04 07:47:17;;;;;;;9.10;1.80;;;14.20;99.90;;;;;;5073199;28;20180;-73
2022/09/04 07:50:00;;;;;;;5.53;1.43;;;14.20;99.90;;;;;;5074077;28;20245;-73
2022/09/04 07:52:45;;;;;;;9.20;1.83;;;14.20;99.90;;;;;;5074125;28;20179;-74
2022/09/04 07:55:22;;;;;;;7.53;1.60;;;14.20;99.90;;;;;;5073843;28;20191;-73
2022/09/04 07:57:58;;;;;;;7.03;1.93;;;14.20;99.90;;;;;;5073418;28;20640;-73
2022/09/04 08:00:27;;;;;;;8.10;2.10;;;14.10;99.90;;;;;;5073733;28;20546;-73
2022/09/04 08:03:49;;;;;;;3.70;1.67;;;14.10;99.90;;;;;;5073781;28;20650;-73
2022/09/04 08:06:36;;;;;;;8.33;2.23;;;14.00;99.90;;;;;;5023018;28;20276;-72
2022/09/04 08:09:41;;;;;;;4.93;1.67;;;13.80;99.90;;;;;;5073334;28;20212;-72
2022/09/04 08:12:46;;;;;;;6.23;2.13;;;13.70;99.90;;;;;;5069728;28;20195;-73
2022/09/04 08:15:18;;;;;;;7.07;2.10;;;13.60;99.90;;;;;;5073824;28;20538;-73
2022/09/04 08:18:00;;;;;;;5.83;2.40;;;13.60;99.90;;;;;;5073295;28;20179;-74
2022/09/04 08:20:27;;;;;;;4.90;2.00;;;13.50;99.90;;;;;;5073654;28;20309;-73
2022/09/04 08:23:18;;;;;;;6.70;2.00;;;13.40;99.90;;;;;;5073409;28;20198;-73
2022/09/04 08:26:01;;;;;;;9.87;2.50;;;13.40;99.90;;;;;;5073553;28;20198;-73
2022/09/04 08:28:46;;;;;;;8.33;2.40;;;13.20;99.90;;;;;;5072678;28;20184;-73
2022/09/04 08:31:49;;;;;;;9.03;2.80;;;13.00;99.90;;;;;;5068152;28;20188;-72
2022/09/04 08:34:34;;;;;;;4.87;2.03;;;13.00;99.90;;;;;;5068437;28;20188;-72
2022/09/04 08:37:30;;;;;;;7.83;2.00;;;12.90;99.90;;;;;;5073052;28;20201;-72
2022/09/04 08:40:21;;;;;;;7.23;2.50;;;12.80;99.90;;;;;;5073116;28;20305;-70
2022/09/04 08:43:28;;;;;;;6.43;2.40;;;12.80;99.90;;;;;;5062792;28;20269;-71
2022/09/04 08:46:21;;;;;;;5.57;2.37;;;12.80;99.90;;;;;;5061654;28;20193;-73
2022/09/04 08:48:54;;;;;;;5.77;2.40;;;12.80;99.90;;;;;;5072669;28;20183;-74
2022/09/04 08:52:03;;;;;;;4.43;2.23;;;12.80;99.90;;;;;;5073060;28;20180;-74
2022/09/04 08:54:47;;;;;;;8.97;2.43;;;12.90;99.90;;;;;;5072610;28;20185;-75
2022/09/04 08:57:34;;;;;;;5.40;2.33;;;13.00;99.90;;;;;;5072433;28;20627;-73
2022/09/04 09:00:11;;;;;;;6.43;2.80;;;13.10;99.90;;;;;;5052771;28;20364;-74
2022/09/04 09:03:15;;;;;;;9.77;3.63;;;13.10;99.90;;;;;;5052666;28;20190;-74
2022/09/04 09:06:00;;;;;;;8.40;2.80;;;13.20;99.90;;;;;;5063017;28;20269;-74
2022/09/04 09:08:46;;;;;;;6.30;2.70;;;13.20;99.90;;;;;;5072250;28;20200;-73
2022/09/04 09:11:50;;;;;;;5.77;2.80;;;13.20;99.90;;;;;;5072599;28;20260;-73
2022/09/04 09:14:30;;;;;;;6.93;2.53;;;13.10;99.90;;;;;;5072560;28;20181;-73
2022/09/04 09:17:31;;;;;;;8.03;2.60;;;13.10;99.90;;;;;;5073625;28;20169;-71
2022/09/04 09:20:17;;;;;;;5.60;2.30;;;13.00;99.90;;;;;;5053669;28;20696;-72
2022/09/04 09:23:28;;;;;;;7.43;2.70;;;13.10;99.90;;;;;;5072847;28;20598;-72
2022/09/04 09:26:29;;;;;;;8.57;2.93;;;13.10;99.90;;;;;;5062864;28;20191;-72
2022/09/04 09:29:42;;;;;;;5.10;2.30;;;13.10;99.90;;;;;;5073822;28;20374;-73
2022/09/04 09:32:28;;;;;;;6.77;1.97;;;13.00;99.90;;;;;;5073534;28;20197;-73
2022/09/04 09:35:13;;;;;;;8.77;2.07;;;13.10;99.90;;;;;;5073667;28;20185;-73
2022/09/04 09:38:27;;;;;;;5.23;2.33;;;13.00;99.90;;;;;;5073265;28;20185;-73
2022/09/04 09:41:19;;;;;;;5.27;2.10;;;13.00;99.90;;;;;;5054920;28;20232;-74
2022/09/04 09:44:22;;;;;;;4.37;1.77;;;12.90;99.90;;;;;;5072762;28;20662;-73
2022/09/04 09:47:21;;;;;;;4.37;2.03;;;12.90;99.90;;;;;;5073183;28;20201;-74
2022/09/04 09:50:39;;;;;;;4.77;1.80;;;12.80;99.90;;;;;;5054427;28;20267;-73
2022/09/04 09:53:25;;;;;;;5.37;1.57;;;12.70;99.90;;;;;;5051295;28;20651;-74
2022/09/04 09:56:27;;;;;;;7.70;1.83;;;12.70;99.90;;;;;;5051823;28;20185;-73
2022/09/04 09:59:17;;;;;;;5.23;1.63;;;12.60;99.90;;;;;;5053109;28;20319;-73
2022/09/04 10:02:25;;;;;;;4.37;1.60;;;12.50;99.90;;;;;;5055887;28;20290;-73
2022/09/04 10:05:14;;;;;;;6.17;1.60;;;12.50;99.90;;;;;;5066074;28;20192;-73
2022/09/04 10:08:01;;;;;;;9.03;1.70;;;12.40;99.90;;;;;;5073180;28;20178;-73
2022/09/04 10:10:50;;;;;;;3.97;1.80;;;12.40;99.90;;;;;;5073301;28;20588;-74
2022/09/04 10:13:53;;;;;;;7.37;1.90;;;12.40;99.90;;;;;;5073018;28;20653;-73
2022/09/04 10:16:38;;;;;;;4.93;1.73;;;12.40;99.90;;;;;;5073196;28;20510;-72
2022/09/04 10:19:28;;;;;;;2.90;1.97;;;12.50;99.90;;;;;;5073125;28;20236;-73
2022/09/04 10:22:13;;;;;;;5.23;2.40;;;12.60;99.90;;;;;;5072973;28;20231;-73
2022/09/04 10:25:17;;;;;;;11.40;2.73;;;12.60;99.90;;;;;;5073529;28;20659;-74
2022/09/04 10:28:16;;;;;;;7.90;2.10;;;12.70;99.90;;;;;;5052799;28;20179;-73
2022/09/04 10:31:12;;;;;;;5.03;2.30;;;12.70;99.90;;;;;;5052974;28;20183;-75
2022/09/04 10:33:58;;;;;;;16.63;10.67;;;12.80;99.90;;;;;;5053277;28;20210;-73
2022/09/04 10:36:46;;;;;;;10.70;7.13;;;12.70;99.90;;;;;;5073287;28;20534;-74
2022/09/04 10:43:12;;;;;;;7.87;3.23;;;12.70;99.90;;;;;;4992190;28;20292;-73
2022/09/04 10:45:50;;;;;;;5.20;2.83;;;12.80;99.90;;;;;;4972208;28;20184;-73
2022/09/04 10:48:43;;;;;;;5.10;2.23;;;12.70;99.90;;;;;;5026539;28;20191;-73
2022/09/04 10:51:38;;;;;;;9.07;2.90;;;12.70;99.90;;;;;;5052896;28;20180;-73
2022/09/04 10:54:20;;;;;;;3.83;1.93;;;12.60;99.90;;;;;;5075033;28;20173;-72
2022/09/04 10:57:06;;;;;;;6.80;1.97;;;12.50;99.90;;;;;;5076335;28;20295;-74
2022/09/04 11:00:01;;;;;;;5.50;2.07;;;12.60;99.90;;;;;;5076822;28;20223;-74
2022/09/04 11:02:48;;;;;;;4.30;1.57;;;12.60;99.90;;;;;;5076665;28;20659;-73
2022/09/04 11:05:32;;;;;;;4.90;1.40;;;12.60;99.90;;;;;;5076936;28;20586;-75
2022/09/04 11:08:22;;;;;;;3.87;1.93;;;12.50;99.90;;;;;;5076779;28;20182;-71
2022/09/04 11:11:06;;;;;;;5.30;1.60;;;12.40;99.90;;;;;;5076476;28;20644;-75
2022/09/04 11:14:17;;;;;;;6.13;1.50;;;12.40;99.90;;;;;;5066438;28;20182;-72
2022/09/04 11:17:14;;;;;;;5.17;1.80;;;12.30;99.90;;;;;;5074919;28;20186;-73
2022/09/04 11:20:05;;;;;;;2.47;1.60;;;12.20;99.90;;;;;;5084925;28;20228;-72
2022/09/04 11:22:51;;;;;;;3.50;1.87;;;12.20;99.90;;;;;;5085056;28;20185;-73
2022/09/04 11:25:24;;;;;;;5.23;1.83;;;12.10;99.90;;;;;;5075326;28;20335;-73
2022/09/04 11:28:06;;;;;;;7.03;1.90;;;12.00;99.90;;;;;;5076715;28;20185;-73
2022/09/04 11:31:29;;;;;;;3.93;2.03;;;12.00;99.90;;;;;;5076110;28;20253;-73
2022/09/04 11:34:41;;;;;;;3.67;1.70;;;11.80;99.90;;;;;;5055020;28;20601;-73
2022/09/04 11:37:27;;;;;;;7.23;2.03;;;11.70;99.90;;;;;;5056543;28;20178;-74
2022/09/04 11:40:06;;;;;;;3.90;1.57;;;11.60;99.90;;;;;;5060442;28;20655;-72
2022/09/04 11:43:09;;;;;;;7.13;2.20;;;11.60;99.90;;;;;;5076277;28;20168;-72
2022/09/04 11:46:00;;;;;;;6.67;1.90;;;11.50;99.90;;;;;;5056337;28;20203;-74
2022/09/04 11:49:17;;;;;;;5.83;2.30;;;11.50;99.90;;;;;;5056141;28;20583;-73
2022/09/04 11:52:05;;;;;;;5.20;2.50;;;11.50;99.90;;;;;;5048895;28;20199;-73
2022/09/04 11:54:56;;;;;;;10.23;2.93;;;11.50;99.90;;;;;;5067730;28;20625;-73
2022/09/04 11:57:50;;;;;;;3.43;1.93;;;11.60;99.90;;;;;;5075746;28;20217;-74
2022/09/04 12:00:25;;;;;;;3.73;2.13;;;11.60;99.90;;;;;;5076991;28;20340;-74
2022/09/04 12:03:33;;;;;;;5.90;2.13;;;11.70;99.90;;;;;;5073723;28;20196;-73
2022/09/04 12:06:38;;;;;;;6.40;2.07;;;11.70;99.90;;;;;;5080911;28;20184;-75
2022/09/04 12:09:51;;;;;;;5.50;2.10;;;11.70;99.90;;;;;;5081312;28;20193;-73
2022/09/04 12:12:52;;;;;;;5.20;2.23;;;11.80;99.90;;;;;;5080246;28;20188;-74
2022/09/04 12:16:01;;;;;;;8.07;2.00;;;11.80;99.90;;;;;;5055945;28;20183;-73
2022/09/04 12:18:58;;;;;;;5.83;2.33;;;11.90;99.90;;;;;;5055610;28;20175;-72
2022/09/04 12:22:14;;;;;;;8.93;2.30;;;11.90;99.90;;;;;;5070441;28;20182;-71
2022/09/04 12:24:48;;;;;;;6.73;2.33;;;12.00;99.90;;;;;;5053947;28;20207;-72
2022/09/04 12:27:43;;;;;;;6.13;1.97;;;12.00;99.90;;;;;;5055304;28;20174;-73
2022/09/04 12:30:35;;;;;;;3.97;2.13;;;12.00;99.90;;;;;;5055279;28;20209;-73
2022/09/04 12:33:18;;;;;;;5.03;2.67;;;12.10;99.90;;;;;;5060388;28;20188;-73
2022/09/04 12:36:12;;;;;;;6.60;2.00;;;12.00;99.90;;;;;;5074956;28;20195;-73
2022/09/04 12:38:51;;;;;;;7.03;2.00;;;12.00;99.90;;;;;;5073573;28;20232;-72
2022/09/04 12:41:37;;;;;;;10.90;2.27;;;11.90;99.90;;;;;;5075041;28;20183;-73
2022/09/04 12:44:31;;;;;;;7.90;1.77;;;11.80;99.90;;;;;;5074249;28;20232;-72
2022/09/04 12:47:21;;;;;;;4.47;1.70;;;11.70;99.90;;;;;;5074738;28;20595;-72
2022/09/04 12:50:16;;;;;;;6.00;1.97;;;11.70;99.90;;;;;;5074819;28;20197;-73
2022/09/04 12:53:01;;;;;;;6.53;1.73;;;11.70;99.90;;;;;;5074183;28;20186;-72
2022/09/04 12:55:57;;;;;;;6.40;2.03;;;11.60;99.90;;;;;;5074167;28;20177;-73
2022/09/04 12:59:06;;;;;;;7.17;1.50;;;11.60;99.90;;;;;;5072668;28;20229;-73
2022/09/04 13:01:41;;;;;;;7.10;1.63;;;11.60;99.90;;;;;;5071096;28;20225;-72
2022/09/04 13:04:34;;;;;;;3.23;1.50;;;11.50;99.90;;;;;;5074068;28;20528;-73
2022/09/04 13:07:16;;;;;;;5.60;1.60;;;11.50;99.90;;;;;;5064233;28;20271;-71
2022/09/04 13:09:49;;;;;;;3.47;1.57;;;11.40;99.90;;;;;;5073055;28;20212;-72
2022/09/04 13:12:40;;;;;;;5.40;1.90;;;11.30;99.90;;;;;;5074619;28;20634;-75
2022/09/04 13:15:28;;;;;;;6.97;2.57;;;11.30;99.90;;;;;;5053252;28;20177;-73
2022/09/04 13:18:20;;;;;;;2.93;1.50;;;11.20;99.90;;;;;;5054040;28;20540;-72
2022/09/04 13:21:10;;;;;;;6.93;1.93;;;11.20;99.90;;;;;;5053693;28;20251;-74
2022/09/04 13:23:58;;;;;;;4.47;1.60;;;11.10;99.90;;;;;;5061773;28;20180;-71
2022/09/04 13:26:59;;;;;;;6.47;2.03;;;11.10;99.90;;;;;;5073700;28;20193;-73
2022/09/04 13:29:34;;;;;;;5.03;2.10;;;11.10;99.90;;;;;;5073679;28;20184;-73
2022/09/04 13:32:09;;;;;;;3.90;1.40;;;11.10;99.90;;;;;;5073995;28;20180;-72
2022/09/04 13:35:13;;;;;;;5.03;1.43;;;11.10;99.90;;;;;;5073619;28;20184;-72
2022/09/04 13:38:08;;;;;;;5.13;1.33;;;11.20;99.90;;;;;;5073624;28;20172;-73
2022/09/04 13:41:17;;;;;;;5.63;1.80;;;11.20;99.90;;;;;;5073874;28;20215;-72
2022/09/04 13:44:21;;;;;;;8.00;1.87;;;11.20;99.90;;;;;;5072645;28;20184;-74
2022/09/04 13:47:06;;;;;;;3.30;1.43;;;11.10;99.90;;;;;;5073466;28;20262;-73
2022/09/04 13:49:48;;;;;;;4.70;1.40;;;11.20;99.90;;;;;;5073483;28;20173;-72
2022/09/04 13:52:38;;;;;;;3.20;1.30;;;11.20;99.90;;;;;;5073705;28;20193;-73
2022/09/04 13:55:31;;;;;;;4.00;1.50;;;11.20;99.90;;;;;;5072811;28;20237;-73
2022/09/04 13:58:09;;;;;;;4.23;1.50;;;11.30;99.90;;;;;;5072827;28;20221;-73
2022/09/04 14:00:44;;;;;;;5.63;1.50;;;11.30;99.90;;;;;;5072931;28;20216;-74
2022/09/04 14:03:23;;;;;;;4.67;1.67;;;11.40;99.90;;;;;;5073117;28;20555;-72
2022/09/04 14:05:51;;;;;;;7.47;1.63;;;11.40;99.90;;;;;;5073974;28;20178;-74
2022/09/04 14:08:19;;;;;;;4.67;1.70;;;11.40;99.90;;;;;;5073072;28;20260;-72
2022/09/04 14:11:09;;;;;;;6.07;1.80;;;11.40;99.90;;;;;;5073307;28;20619;-74
2022/09/04 14:13:54;;;;;;;5.20;1.63;;;11.50;99.90;;;;;;5073232;28;20180;-72
2022/09/04 14:16:22;;;;;;;3.53;1.53;;;11.60;99.90;;;;;;5071921;28;20194;-73
2022/09/04 14:19:23;;;;;;;3.57;1.50;;;11.60;99.90;;;;;;5072954;28;20237;-73
2022/09/04 14:22:11;;;;;;;3.37;1.53;;;11.60;99.90;;;;;;5073155;28;20173;-75
2022/09/04 14:24:55;;;;;;;4.17;1.47;;;11.60;99.90;;;;;;5073312;28;20272;-73
2022/09/04 14:27:47;;;;;;;5.87;1.87;;;11.60;99.90;;;;;;5073224;28;20183;-74
2022/09/04 14:30:21;;;;;;;6.40;1.60;;;11.60;99.90;;;;;;5077020;28;20185;-74
2022/09/04 14:33:03;;;;;;;3.67;1.33;;;11.60;99.90;;;;;;5077002;28;20182;-73
2022/09/04 14:35:58;;;;;;;5.20;1.40;;;11.60;99.90;;;;;;5077224;28;20177;-73
2022/09/04 14:38:43;;;;;;;4.50;1.60;;;11.60;99.90;;;;;;5076917;28;20673;-73
2022/09/04 14:41:45;;;;;;;3.57;1.50;;;11.60;99.90;;;;;;5076688;28;20234;-72
2022/09/04 14:44:23;;;;;;;4.43;1.70;;;11.60;99.90;;;;;;5075777;28;20181;-72